createdAt,value
2022-08-10T00:02:33.234Z,1024.84
2022-08-10T00:07:40.018Z,1024.80
2022-08-10T00:12:54.196Z,1024.79
2022-08-10T00:17:57.143Z,1024.77
2022-08-10T00:23:01.006Z,1024.76
2022-08-10T00:28:08.673Z,1024.74
2022-08-10T00:33:15.739Z,1024.69
2022-08-10T00:38:22.761Z,1024.65
2022-08-10T00:43:29.654Z,1024.61
2022-08-10T00:48:36.665Z,1024.54
2022-08-10T00:53:43.864Z,1024.47
2022-08-10T00:58:50.790Z,1024.41
2022-08-10T01:04:42.069Z,1024.35
2022-08-10T01:09:05.237Z,1024.35
2022-08-10T01:14:12.111Z,1024.31
2022-08-10T01:19:19.280Z,1024.27
2022-08-10T01:24:26.248Z,1024.28
2022-08-10T01:29:33.689Z,1024.26
2022-08-10T01:34:40.608Z,1024.28
2022-08-10T01:39:47.654Z,1024.32
2022-08-10T01:44:55.186Z,1024.27
2022-08-10T01:50:02.257Z,1024.27
2022-08-10T01:55:09.100Z,1024.21
2022-08-10T02:00:16.177Z,1024.20
2022-08-10T02:05:23.136Z,1024.21
2022-08-10T02:10:30.299Z,1024.18
2022-08-10T02:15:37.195Z,1024.17
2022-08-10T02:20:44.642Z,1024.25
2022-08-10T02:25:51.599Z,1024.30
2022-08-10T02:30:58.525Z,1024.31
2022-08-10T02:36:06.113Z,1024.33
2022-08-10T02:42:18.214Z,1024.35
2022-08-10T02:46:20.893Z,1024.34
2022-08-10T02:52:08.112Z,1024.36
2022-08-10T02:56:34.136Z,1024.35
2022-08-10T03:01:41.133Z,1024.36
2022-08-10T03:06:48.609Z,1024.37
2022-08-10T03:12:37.157Z,1024.45
2022-08-10T03:17:02.528Z,1024.42
2022-08-10T03:22:09.472Z,1024.37
2022-08-10T03:27:16.944Z,1024.33
2022-08-10T03:32:23.927Z,1024.32
2022-08-10T03:37:30.845Z,1024.32
2022-08-10T03:42:38.118Z,1024.35
2022-08-10T03:47:45.042Z,1024.30
2022-08-10T03:52:52.222Z,1024.36
2022-08-10T03:57:59.179Z,1024.37
2022-08-10T04:03:06.220Z,1024.38
2022-08-10T04:08:13.705Z,1024.40
2022-08-10T04:13:20.734Z,1024.42
2022-08-10T04:18:27.667Z,1024.36
2022-08-10T04:23:34.635Z,1024.38
2022-08-10T04:28:41.549Z,1024.46
2022-08-10T04:33:49.087Z,1024.53
2022-08-10T04:38:55.903Z,1024.70
2022-08-10T04:44:02.884Z,1024.75
2022-08-10T04:49:27.194Z,1024.77
2022-08-10T04:54:17.159Z,1024.82
2022-08-10T04:59:24.469Z,1024.89
2022-08-10T05:04:35.884Z,1024.90
2022-08-10T05:10:03.125Z,1024.95
2022-08-10T05:14:46.100Z,1024.84
2022-08-10T05:20:02.917Z,1024.92
2022-08-10T05:25:00.044Z,1025.10
2022-08-10T05:30:07.045Z,1025.13
2022-08-10T05:35:15.015Z,1025.19
2022-08-10T05:40:21.460Z,1025.24
2022-08-10T05:45:28.486Z,1025.28
2022-08-10T05:50:35.354Z,1025.25
2022-08-10T05:55:42.799Z,1025.30
2022-08-10T06:00:50.493Z,1025.39
2022-08-10T06:05:56.824Z,1025.47
2022-08-10T06:12:28.532Z,1025.61
2022-08-10T06:16:11.197Z,1025.62
2022-08-10T06:21:18.190Z,1025.54
2022-08-10T06:26:25.619Z,1025.51
2022-08-10T06:31:46.609Z,1025.62
2022-08-10T06:36:39.501Z,1025.69
2022-08-10T06:41:57.754Z,1025.74
2022-08-10T06:46:53.888Z,1025.67
2022-08-10T06:52:00.827Z,1025.69
2022-08-10T06:57:17.921Z,1025.62
2022-08-10T07:02:15.492Z,1025.63
2022-08-10T07:07:22.327Z,1025.69
2022-08-10T07:12:29.760Z,1025.80
2022-08-10T07:17:39.257Z,1025.80
2022-08-10T07:23:50.806Z,1025.79
2022-08-10T07:27:59.850Z,1025.84
2022-08-10T07:32:57.948Z,1025.87
2022-08-10T07:38:05.442Z,1025.82
2022-08-10T07:43:12.362Z,1025.81
2022-08-10T07:48:19.980Z,1025.98
2022-08-10T07:53:27.039Z,1026.15
2022-08-10T07:58:34.281Z,1026.13
2022-08-10T08:03:41.198Z,1026.25
2022-08-10T08:08:48.180Z,1026.18
2022-08-10T08:13:55.342Z,1026.13
2022-08-10T08:19:35.387Z,1026.03
2022-08-10T08:24:30.956Z,1026.05
2022-08-10T08:29:16.720Z,1026.09
2022-08-10T08:34:23.690Z,1025.97
2022-08-10T08:39:31.264Z,1025.98
2022-08-10T08:44:38.105Z,1025.98
2022-08-10T08:50:08.803Z,1025.90
2022-08-10T08:54:52.640Z,1025.90
2022-08-10T08:59:59.709Z,1025.85
2022-08-10T09:05:06.712Z,1025.94
2022-08-10T09:10:14.171Z,1025.98
2022-08-10T09:15:40.294Z,1025.94
2022-08-10T09:20:28.402Z,1025.94
2022-08-10T09:25:35.235Z,1026.00
2022-08-10T09:30:57.472Z,1026.03
2022-08-10T09:36:25.567Z,1026.04
2022-08-10T09:41:03.102Z,1026.00
2022-08-10T09:46:04.927Z,1025.89
2022-08-10T09:56:22.212Z,1025.73
2022-08-10T10:02:02.776Z,1025.65
2022-08-10T10:06:32.716Z,1025.63
2022-08-10T10:11:39.636Z,1025.61
2022-08-10T10:16:47.229Z,1025.65
2022-08-10T10:21:56.507Z,1025.59
2022-08-10T10:27:01.315Z,1025.59
2022-08-10T10:32:08.667Z,1025.57
2022-08-10T10:37:15.645Z,1025.47
2022-08-10T10:42:44.173Z,1025.43
2022-08-10T10:47:30.176Z,1025.41
2022-08-10T10:52:37.176Z,1025.44
2022-08-10T10:58:00.293Z,1025.47
2022-08-10T11:02:51.751Z,1025.55
2022-08-10T11:07:58.768Z,1025.62
2022-08-10T11:14:24.895Z,1025.56
2022-08-10T11:18:14.077Z,1025.53
2022-08-10T11:23:20.097Z,1025.46
2022-08-10T11:33:42.769Z,1025.40
2022-08-10T11:39:03.989Z,1025.39
2022-08-10T11:43:49.011Z,1025.36
2022-08-10T11:48:58.762Z,1025.29
2022-08-10T11:54:03.131Z,1025.18
2022-08-10T11:59:17.071Z,1025.16
2022-08-10T12:04:17.388Z,1025.13
2022-08-10T12:10:08.526Z,1025.06
2022-08-10T12:14:31.794Z,1025.05
2022-08-10T12:20:02.368Z,1025.08
2022-08-10T12:24:46.222Z,1025.06
2022-08-10T12:29:53.194Z,1025.01
2022-08-10T12:35:00.666Z,1024.99
2022-08-10T12:40:33.965Z,1024.99
2022-08-10T12:45:14.877Z,1024.92
2022-08-10T12:50:33.429Z,1024.84
2022-08-10T12:55:29.394Z,1024.80
2022-08-10T13:00:48.985Z,1024.72
2022-08-10T13:06:01.911Z,1024.69
2022-08-10T13:10:50.749Z,1024.56
2022-08-10T13:15:57.659Z,1024.33
2022-08-10T13:21:05.257Z,1024.29
2022-08-10T13:26:12.410Z,1024.12
2022-08-10T13:31:20.408Z,1023.99
2022-08-10T13:36:26.381Z,1023.96
2022-08-10T13:41:33.849Z,1023.84
2022-08-10T13:46:40.813Z,1023.72
2022-08-10T13:51:53.794Z,1023.51
2022-08-10T13:56:55.163Z,1023.40
2022-08-10T14:02:02.282Z,1023.33
2022-08-10T14:07:09.196Z,1023.29
2022-08-10T14:12:16.621Z,1023.25
2022-08-10T14:17:23.886Z,1023.23
2022-08-10T14:22:33.895Z,1023.27
2022-08-10T14:28:02.612Z,1023.17
2022-08-10T14:32:45.135Z,1023.24
2022-08-10T14:37:52.093Z,1023.16
2022-08-10T14:42:59.509Z,1023.12
2022-08-10T14:48:06.764Z,1023.02
2022-08-10T14:58:21.172Z,1022.74
2022-08-10T15:04:01.286Z,1022.69
2022-08-10T15:08:37.150Z,1022.58
2022-08-10T15:13:42.410Z,1022.54
2022-08-10T15:18:57.875Z,1022.58
2022-08-10T15:24:04.465Z,1022.56
2022-08-10T15:29:23.103Z,1022.51
2022-08-10T15:34:11.025Z,1022.47
2022-08-10T15:40:22.368Z,1022.37
2022-08-10T15:44:24.988Z,1022.24
2022-08-10T15:49:31.998Z,1022.18
2022-08-10T15:54:39.447Z,1022.12
2022-08-10T15:59:46.466Z,1022.06
2022-08-10T16:04:53.452Z,1022.07
2022-08-10T16:10:10.563Z,1022.12
2022-08-10T16:15:08.921Z,1022.10
2022-08-10T16:20:15.404Z,1022.02
2022-08-10T16:25:22.405Z,1021.95
2022-08-10T16:30:29.447Z,1021.90
2022-08-10T16:35:36.381Z,1021.88
2022-08-10T16:40:43.665Z,1021.85
2022-08-10T16:45:50.855Z,1021.80
2022-08-10T16:50:57.589Z,1021.79
2022-08-10T16:56:05.125Z,1021.73
2022-08-10T17:01:12.272Z,1021.75
2022-08-10T17:06:19.195Z,1021.78
2022-08-10T17:11:26.140Z,1021.73
2022-08-10T17:16:33.817Z,1021.67
2022-08-10T17:21:51.925Z,1021.61
2022-08-10T17:26:47.773Z,1021.61
2022-08-10T17:31:55.547Z,1021.57
2022-08-10T17:37:02.168Z,1021.50
2022-08-10T17:42:09.162Z,1021.49
2022-08-10T17:47:16.313Z,1021.41
2022-08-10T17:52:23.265Z,1021.47
2022-08-10T17:57:30.343Z,1021.56
2022-08-10T18:02:37.846Z,1021.54
2022-08-10T18:07:44.833Z,1021.57
2022-08-10T18:12:51.611Z,1021.58
2022-08-10T18:17:59.863Z,1021.57
2022-08-10T18:23:06.083Z,1021.63
2022-08-10T18:28:13.322Z,1021.75
2022-08-10T18:33:20.466Z,1021.78
2022-08-10T18:38:27.527Z,1021.73
2022-08-10T18:44:05.547Z,1021.73
2022-08-10T18:48:41.633Z,1021.72
2022-08-10T18:53:49.049Z,1021.74
2022-08-10T18:59:00.663Z,1021.80
2022-08-10T19:04:03.339Z,1021.84
2022-08-10T19:09:41.597Z,1021.80
2022-08-10T19:14:17.466Z,1021.73
2022-08-10T19:19:24.730Z,1021.71
2022-08-10T19:24:31.658Z,1021.68
2022-08-10T19:30:08.040Z,1021.68
2022-08-10T19:34:45.953Z,1021.75
2022-08-10T19:39:52.978Z,1021.75
2022-08-10T19:44:59.835Z,1021.79
2022-08-10T19:50:07.381Z,1021.83
2022-08-10T19:55:15.412Z,1021.91
2022-08-10T20:00:27.014Z,1021.99
2022-08-10T20:05:28.791Z,1021.95
2022-08-10T20:10:35.765Z,1021.96
2022-08-10T20:15:42.718Z,1022.04
2022-08-10T20:20:49.673Z,1021.99
2022-08-10T20:25:57.144Z,1022.01
2022-08-10T20:31:04.322Z,1022.10
2022-08-10T20:36:11.436Z,1022.09
2022-08-10T20:41:18.353Z,1022.06
2022-08-10T20:46:25.350Z,1022.04
2022-08-10T20:51:58.383Z,1022.07
2022-08-10T20:56:39.725Z,1022.12
2022-08-10T21:02:06.819Z,1022.14
2022-08-10T21:06:53.762Z,1022.16
2022-08-10T21:12:00.804Z,1022.12
2022-08-10T21:17:07.821Z,1022.11
2022-08-10T21:22:15.576Z,1022.08
2022-08-10T21:27:22.816Z,1022.02
2022-08-10T21:32:29.269Z,1022.00
2022-08-10T21:37:40.433Z,1021.97
2022-08-10T21:42:43.603Z,1021.94
2022-08-10T21:48:05.058Z,1022.01
2022-08-10T21:58:04.662Z,1022.03
2022-08-10T22:03:12.131Z,1022.04
2022-08-10T22:08:19.205Z,1022.01
2022-08-10T22:13:26.097Z,1021.98
2022-08-10T22:18:33.693Z,1021.89
2022-08-10T22:23:40.462Z,1021.88
2022-08-10T22:28:48.591Z,1021.85
2022-08-10T22:31:25.492Z,1022.01
2022-08-10T22:33:54.933Z,1021.80
2022-08-10T22:39:02.048Z,1021.73
2022-08-10T22:44:09.143Z,1021.67
2022-08-10T22:49:16.128Z,1021.66
2022-08-10T22:54:30.413Z,1021.66
2022-08-10T22:59:30.087Z,1021.64
2022-08-10T23:04:40.226Z,1021.62
2022-08-10T23:09:44.859Z,1021.56
2022-08-10T23:14:59.945Z,1021.48
2022-08-10T23:19:58.869Z,1021.50
2022-08-10T23:25:05.969Z,1021.55
2022-08-10T23:30:17.574Z,1021.66
2022-08-10T23:36:05.702Z,1021.66
2022-08-10T23:40:26.946Z,1021.68
2022-08-10T23:45:53.362Z,1021.68
2022-08-10T23:50:41.341Z,1021.64
2022-08-10T23:55:49.490Z,1021.65
